Time;durP1;ratioP1;P1;durP2;ratioP2;P2;SDS_P1;SDS_P2;PMS_P1;PMS_P2;Temp;Humidity;BMP_temperature;BMP_pressure;BME280_temperature;BME280_humidity;BME280_pressure;Samples;Min_cycle;Max_cycle;Signal;HPM_P1;HPM_P2
2022/12/10 00:00:40;;;;;;;61.87;27.20;;;2.30;90.30;;;;;;5017823;28;20269;-70
2022/12/10 00:03:05;;;;;;;57.60;26.60;;;2.30;90.60;;;;;;5029670;28;21008;-70
2022/12/10 00:05:34;;;;;;;65.43;26.53;;;2.30;90.70;;;;;;5029007;28;20189;-72
2022/12/10 00:07:59;;;;;;;60.53;26.50;;;2.20;90.90;;;;;;5024332;28;20235;-72
2022/12/10 00:10:25;;;;;;;52.90;25.97;;;2.20;91.00;;;;;;5029083;28;20483;-72
2022/12/10 00:12:51;;;;;;;55.80;25.90;;;2.30;90.90;;;;;;5026207;28;20261;-73
2022/12/10 00:15:16;;;;;;;55.73;24.90;;;2.20;90.70;;;;;;5023964;28;20182;-74
2022/12/10 00:17:42;;;;;;;56.93;27.27;;;2.30;90.90;;;;;;5026084;28;20732;-72
2022/12/10 00:20:09;;;;;;;54.00;24.70;;;2.20;90.60;;;;;;5028139;28;20266;-74
2022/12/10 00:22:34;;;;;;;54.07;25.67;;;2.20;90.60;;;;;;5016178;28;20186;-74
2022/12/10 00:25:00;;;;;;;63.03;26.57;;;2.20;90.70;;;;;;5024356;28;20432;-73
2022/12/10 00:27:26;;;;;;;52.77;27.07;;;2.20;90.60;;;;;;5020694;28;20200;-73
2022/12/10 00:29:51;;;;;;;55.60;24.70;;;2.20;90.80;;;;;;5024720;28;20687;-73
2022/12/10 00:32:17;;;;;;;49.73;24.23;;;2.20;90.70;;;;;;5027212;28;20210;-74
2022/12/10 00:34:42;;;;;;;50.93;24.00;;;2.20;90.70;;;;;;5026661;28;20635;-73
2022/12/10 00:37:08;;;;;;;54.33;24.33;;;2.20;90.70;;;;;;5023532;28;20199;-73
2022/12/10 00:39:33;;;;;;;57.53;26.10;;;2.10;90.50;;;;;;5029889;28;20287;-72
2022/12/10 00:41:59;;;;;;;52.10;25.17;;;2.00;90.60;;;;;;5031686;28;20221;-73
2022/12/10 00:44:25;;;;;;;59.80;25.40;;;1.80;90.70;;;;;;5029521;28;20216;-73
2022/12/10 00:46:50;;;;;;;54.50;27.07;;;1.70;91.10;;;;;;5021437;28;20190;-73
2022/12/10 00:49:16;;;;;;;55.63;24.47;;;1.70;91.20;;;;;;5033562;28;20213;-74
2022/12/10 00:51:41;;;;;;;53.43;25.73;;;1.60;91.30;;;;;;5029292;28;20988;-73
2022/12/10 00:54:07;;;;;;;63.17;25.60;;;1.60;91.50;;;;;;5032035;28;20196;-74
2022/12/10 00:56:33;;;;;;;51.50;24.17;;;1.70;91.60;;;;;;5021434;28;20272;-74
2022/12/10 00:59:01;;;;;;;54.87;24.60;;;1.60;91.40;;;;;;5024418;28;20499;-74
2022/12/10 01:01:39;;;;;;;58.20;25.23;;;1.70;91.60;;;;;;5019123;28;20428;-75
2022/12/10 01:04:10;;;;;;;54.95;26.17;;;1.80;91.70;;;;;;5014808;28;20193;-75
2022/12/10 01:06:44;;;;;;;55.72;25.00;;;1.90;91.70;;;;;;5017680;28;20192;-74
2022/12/10 01:09:12;;;;;;;54.60;24.70;;;2.00;91.60;;;;;;5021187;28;20217;-74
2022/12/10 01:11:40;;;;;;;47.97;22.90;;;2.00;91.40;;;;;;5017711;28;20196;-73
2022/12/10 01:14:08;;;;;;;55.03;26.10;;;2.00;91.20;;;;;;5020248;28;20436;-73
2022/12/10 01:16:34;;;;;;;50.17;23.70;;;2.00;91.10;;;;;;5019832;28;20408;-73
2022/12/10 01:19:00;;;;;;;56.20;25.33;;;2.10;90.90;;;;;;5021415;28;20529;-73
2022/12/10 01:21:27;;;;;;;58.57;25.97;;;2.20;91.00;;;;;;5023804;28;20258;-74
2022/12/10 01:23:53;;;;;;;57.57;26.97;;;2.20;90.70;;;;;;5026521;28;20186;-73
2022/12/10 01:26:21;;;;;;;54.27;24.80;;;2.20;90.60;;;;;;5025584;28;20425;-72
2022/12/10 01:28:48;;;;;;;58.60;25.43;;;2.20;90.50;;;;;;5017282;28;20464;-73
2022/12/10 01:31:25;;;;;;;54.55;25.08;;;2.10;90.40;;;;;;5023097;28;20475;-74
2022/12/10 01:33:51;;;;;;;51.85;23.58;;;2.00;90.30;;;;;;5027017;28;20178;-73
2022/12/10 01:36:23;;;;;;;52.77;24.07;;;2.00;90.50;;;;;;5020996;28;20201;-74
2022/12/10 01:38:49;;;;;;;54.27;24.10;;;1.90;90.50;;;;;;5023345;28;20440;-72
2022/12/10 01:41:18;;;;;;;52.27;23.93;;;1.90;90.70;;;;;;5023597;28;20806;-73
2022/12/10 01:44:25;;;;;;;53.67;24.05;;;1.80;90.90;;;;;;5023018;28;20416;-74
2022/12/10 01:46:56;;;;;;;48.38;24.38;;;1.70;91.00;;;;;;5017696;28;20239;-74
2022/12/10 01:49:23;;;;;;;51.85;24.40;;;1.70;91.10;;;;;;5025234;28;20213;-73
2022/12/10 01:51:53;;;;;;;51.28;24.13;;;1.70;91.10;;;;;;5022381;28;20190;-73
2022/12/10 01:54:28;;;;;;;55.25;25.58;;;1.70;91.20;;;;;;5023869;28;20268;-74
2022/12/10 01:57:11;;;;;;;48.08;23.90;;;1.70;91.20;;;;;;5022036;28;20822;-73
2022/12/10 01:59:37;;;;;;;56.63;25.73;;;1.80;91.20;;;;;;5020143;28;20736;-74
2022/12/10 02:02:34;;;;;;;54.40;24.05;;;1.90;91.30;;;;;;5027183;28;20965;-74
2022/12/10 02:05:21;;;;;;;55.42;23.83;;;2.00;91.20;;;;;;5025821;28;20562;-74
2022/12/10 02:08:21;;;;;;;54.67;23.63;;;2.00;91.20;;;;;;5021383;28;20185;-73
2022/12/10 02:11:02;;;;;;;57.00;23.35;;;2.00;91.00;;;;;;5024106;28;20209;-73
2022/12/10 02:13:42;;;;;;;54.00;24.50;;;2.00;90.70;;;;;;5021925;28;20644;-73
2022/12/10 02:16:15;;;;;;;50.35;24.58;;;2.00;90.60;;;;;;5024285;28;20412;-73
2022/12/10 02:18:46;;;;;;;56.55;24.90;;;1.90;90.50;;;;;;5027900;28;20283;-74
2022/12/10 02:21:18;;;;;;;57.37;25.17;;;1.90;90.60;;;;;;5026890;28;20208;-73
2022/12/10 02:23:49;;;;;;;48.93;23.57;;;2.00;90.70;;;;;;5024575;28;20455;-74
2022/12/10 02:26:17;;;;;;;51.03;23.50;;;2.10;90.80;;;;;;5020013;28;20424;-74
2022/12/10 02:29:13;;;;;;;49.57;24.87;;;2.10;90.60;;;;;;5026971;28;20823;-74
2022/12/10 02:31:53;;;;;;;49.93;23.77;;;2.20;90.70;;;;;;5022919;28;20412;-73
2022/12/10 02:34:21;;;;;;;42.63;22.33;;;2.20;90.50;;;;;;5020823;28;20423;-73
2022/12/10 02:36:50;;;;;;;58.13;23.77;;;2.20;90.50;;;;;;5031570;28;21034;-74
2022/12/10 02:39:21;;;;;;;49.43;24.00;;;2.20;90.40;;;;;;5028886;28;20898;-74
2022/12/10 02:41:54;;;;;;;54.80;23.57;;;2.20;90.30;;;;;;5030864;28;20787;-74
2022/12/10 02:44:22;;;;;;;55.53;25.60;;;2.20;90.10;;;;;;5025447;28;20440;-75
2022/12/10 02:46:52;;;;;;;50.00;23.88;;;2.00;90.00;;;;;;5025688;28;20577;-73
2022/12/10 02:49:18;;;;;;;58.17;25.00;;;2.00;90.30;;;;;;5025938;28;20272;-73
2022/12/10 02:51:43;;;;;;;55.93;23.87;;;1.90;90.40;;;;;;5024743;28;20543;-73
2022/12/10 02:54:39;;;;;;;55.97;24.50;;;1.80;90.60;;;;;;5025357;28;20507;-73
2022/12/10 02:57:25;;;;;;;55.43;25.30;;;1.80;90.90;;;;;;5019666;28;20188;-73
2022/12/10 03:00:06;;;;;;;44.58;21.83;;;1.80;91.00;;;;;;5025098;28;20471;-74
2022/12/10 03:02:40;;;;;;;44.60;22.42;;;1.80;91.20;;;;;;5024198;28;20192;-74
2022/12/10 03:05:24;;;;;;;50.28;23.30;;;1.80;91.20;;;;;;5037411;28;20188;-73
2022/12/10 03:08:11;;;;;;;46.90;21.17;;;1.90;91.30;;;;;;5027546;28;20661;-75
2022/12/10 03:11:00;;;;;;;51.85;23.52;;;1.90;91.10;;;;;;5026557;28;20213;-75
2022/12/10 03:13:35;;;;;;;52.08;25.30;;;2.10;91.10;;;;;;5022761;28;20188;-74
2022/12/10 03:16:02;;;;;;;48.25;22.88;;;2.10;90.90;;;;;;5024804;28;20177;-74
2022/12/10 03:18:31;;;;;;;49.47;22.92;;;2.10;90.90;;;;;;5022854;28;20174;-73
2022/12/10 03:20:59;;;;;;;55.07;24.13;;;2.00;90.60;;;;;;5022166;28;20587;-75
2022/12/10 03:23:27;;;;;;;47.83;23.80;;;2.00;90.50;;;;;;5029743;28;20423;-75
2022/12/10 03:25:52;;;;;;;46.67;23.23;;;2.00;90.60;;;;;;5026889;28;20415;-75
2022/12/10 03:28:20;;;;;;;53.70;23.60;;;2.00;90.70;;;;;;5028473;28;20420;-74
2022/12/10 03:30:48;;;;;;;44.28;23.00;;;2.10;90.70;;;;;;5032728;28;20275;-74
2022/12/10 03:33:14;;;;;;;48.45;24.38;;;2.10;90.60;;;;;;5035116;28;20181;-74
2022/12/10 03:35:40;;;;;;;49.67;23.10;;;2.00;90.50;;;;;;5026748;28;20177;-75
2022/12/10 03:38:07;;;;;;;50.60;22.60;;;2.00;90.50;;;;;;5037745;28;20186;-73
2022/12/10 03:40:33;;;;;;;55.63;23.60;;;2.00;90.60;;;;;;5031158;28;20894;-73
2022/12/10 03:42:58;;;;;;;51.50;23.37;;;1.90;90.70;;;;;;5032018;28;20451;-75
2022/12/10 03:45:24;;;;;;;51.10;23.10;;;1.90;90.60;;;;;;5033900;28;20205;-75
2022/12/10 03:47:50;;;;;;;54.83;23.73;;;1.90;90.70;;;;;;5034542;28;20274;-74
2022/12/10 03:50:15;;;;;;;46.03;21.90;;;1.90;90.70;;;;;;5030080;28;20215;-74
2022/12/10 03:52:41;;;;;;;55.13;24.70;;;1.90;90.60;;;;;;5031873;28;20197;-74
2022/12/10 03:55:07;;;;;;;48.77;22.70;;;1.80;90.50;;;;;;5019691;28;20190;-74
2022/12/10 03:57:34;;;;;;;49.40;23.27;;;1.80;90.60;;;;;;5026527;28;20188;-73
2022/12/10 03:59:59;;;;;;;48.10;22.48;;;1.70;90.40;;;;;;5027210;28;20221;-74
2022/12/10 04:02:25;;;;;;;53.23;22.50;;;1.80;90.60;;;;;;5023661;28;20295;-74
2022/12/10 04:04:50;;;;;;;50.47;23.37;;;1.70;90.30;;;;;;5027491;28;20188;-73
2022/12/10 04:07:16;;;;;;;50.70;23.10;;;1.60;90.50;;;;;;5024644;28;20243;-72
2022/12/10 04:09:41;;;;;;;49.07;23.07;;;1.70;90.70;;;;;;5025784;28;21112;-73
2022/12/10 04:12:07;;;;;;;46.17;22.83;;;1.70;90.70;;;;;;5023755;28;20200;-74
2022/12/10 04:17:17;;;;;;;48.35;23.25;;;1.70;90.80;;;;;;5024997;28;20224;-74
2022/12/10 04:19:43;;;;;;;48.73;23.33;;;1.70;90.70;;;;;;5022635;28;20217;-72
2022/12/10 04:27:38;;;;;;;50.88;23.05;;;1.70;90.90;;;;;;5018632;28;20227;-73
2022/12/10 04:30:07;;;;;;;50.63;23.25;;;1.70;90.70;;;;;;5020486;28;20641;-73
2022/12/10 04:32:33;;;;;;;49.60;23.40;;;1.60;90.70;;;;;;5015881;28;20213;-74
2022/12/10 04:34:59;;;;;;;44.07;22.23;;;1.60;90.80;;;;;;5024163;28;20211;-74
2022/12/10 04:37:26;;;;;;;54.33;23.67;;;1.60;90.80;;;;;;5027237;28;20524;-73
2022/12/10 04:39:52;;;;;;;52.75;24.15;;;1.60;90.80;;;;;;5024941;28;20213;-73
2022/12/10 04:42:18;;;;;;;52.47;22.63;;;1.60;90.90;;;;;;5026326;28;20194;-74
2022/12/10 04:44:43;;;;;;;50.28;23.20;;;1.60;90.90;;;;;;5030262;28;21012;-74
2022/12/10 04:47:10;;;;;;;48.40;22.37;;;1.60;90.90;;;;;;5027220;28;20197;-74
2022/12/10 04:49:36;;;;;;;48.13;22.83;;;1.70;91.00;;;;;;5025799;28;20213;-74
2022/12/10 04:52:03;;;;;;;51.25;22.10;;;1.80;90.80;;;;;;5019147;28;20205;-75
2022/12/10 04:54:29;;;;;;;49.60;22.73;;;1.90;90.70;;;;;;5023793;28;20192;-73
2022/12/10 04:56:55;;;;;;;54.07;23.53;;;1.70;90.50;;;;;;5014414;28;20186;-74
2022/12/10 04:59:20;;;;;;;51.60;24.45;;;1.60;90.60;;;;;;5025719;28;20460;-74
2022/12/10 05:01:46;;;;;;;53.40;24.10;;;1.60;90.90;;;;;;5020334;28;20671;-74
2022/12/10 05:04:14;;;;;;;51.30;23.67;;;1.60;91.00;;;;;;5028319;28;20193;-73
2022/12/10 05:06:40;;;;;;;50.35;23.23;;;1.60;91.00;;;;;;5027860;28;20243;-74
2022/12/10 05:09:06;;;;;;;51.92;22.30;;;1.60;91.00;;;;;;5020684;28;20214;-73
2022/12/10 05:11:33;;;;;;;47.43;23.40;;;1.80;91.20;;;;;;5026998;28;20177;-73
2022/12/10 05:14:00;;;;;;;54.03;23.17;;;1.80;91.10;;;;;;5025732;28;20430;-73
2022/12/10 05:16:28;;;;;;;52.43;25.47;;;1.70;90.90;;;;;;5016776;28;20197;-74
2022/12/10 05:18:55;;;;;;;51.40;24.10;;;1.60;90.80;;;;;;5015860;28;20633;-74
2022/12/10 05:21:22;;;;;;;57.05;24.77;;;1.50;90.90;;;;;;5032469;28;20420;-75
2022/12/10 05:23:50;;;;;;;48.28;22.40;;;1.50;91.00;;;;;;5046360;28;20170;-73
2022/12/10 05:26:21;;;;;;;56.42;24.00;;;1.50;91.30;;;;;;5040708;28;20227;-73
2022/12/10 05:28:53;;;;;;;50.13;21.27;;;1.50;91.60;;;;;;5030172;28;20209;-73
2022/12/10 05:31:21;;;;;;;53.38;25.23;;;1.50;91.50;;;;;;5033309;28;20209;-74
2022/12/10 05:33:48;;;;;;;51.85;24.67;;;1.50;91.50;;;;;;5039291;28;20185;-72
2022/12/10 05:36:15;;;;;;;47.65;22.45;;;1.40;91.50;;;;;;5041185;28;20698;-75
2022/12/10 05:38:41;;;;;;;55.75;25.20;;;1.40;91.60;;;;;;5041016;28;20181;-73
2022/12/10 05:41:11;;;;;;;56.55;25.27;;;1.30;91.80;;;;;;5036418;28;20184;-72
2022/12/10 05:43:36;;;;;;;49.25;23.48;;;1.40;91.90;;;;;;5034570;28;20251;-72
2022/12/10 05:46:04;;;;;;;56.87;25.07;;;1.40;91.90;;;;;;5032794;28;20223;-73
2022/12/10 05:48:30;;;;;;;51.20;25.10;;;1.40;92.00;;;;;;5024756;28;20213;-73
2022/12/10 05:50:57;;;;;;;54.17;24.37;;;1.50;92.00;;;;;;5023170;28;20205;-75
2022/12/10 05:53:23;;;;;;;58.05;25.27;;;1.50;92.00;;;;;;5029568;28;20444;-73
2022/12/10 05:55:49;;;;;;;58.00;25.55;;;1.50;91.90;;;;;;5025054;28;20529;-74
2022/12/10 05:58:15;;;;;;;57.33;26.67;;;1.30;91.60;;;;;;5027855;28;20203;-74
2022/12/10 06:00:41;;;;;;;46.55;23.73;;;1.30;91.80;;;;;;5031218;28;20996;-73
2022/12/10 06:03:07;;;;;;;52.27;23.13;;;1.30;91.80;;;;;;5031262;28;20197;-74
2022/12/10 06:05:40;;;;;;;53.37;23.63;;;1.30;91.80;;;;;;5035517;28;20510;-74
2022/12/10 06:08:06;;;;;;;53.30;23.30;;;1.20;91.80;;;;;;5031504;28;20680;-73
2022/12/10 06:10:35;;;;;;;50.13;24.20;;;1.20;91.90;;;;;;5029923;28;20217;-72
2022/12/10 06:13:01;;;;;;;52.15;23.75;;;1.30;92.00;;;;;;5038194;28;20193;-72
2022/12/10 06:15:26;;;;;;;54.45;24.98;;;1.20;91.80;;;;;;5035638;28;20207;-72
2022/12/10 06:17:54;;;;;;;50.77;23.70;;;1.10;91.70;;;;;;5043107;28;20209;-73
2022/12/10 06:20:20;;;;;;;62.55;25.33;;;1.10;91.80;;;;;;5041919;28;20206;-74
2022/12/10 06:22:45;;;;;;;52.57;24.97;;;1.00;91.80;;;;;;5027695;28;20269;-74
2022/12/10 06:25:11;;;;;;;52.77;23.50;;;1.00;92.00;;;;;;5027729;28;20272;-74
2022/12/10 06:27:37;;;;;;;53.90;24.60;;;1.00;92.10;;;;;;5026185;28;20177;-73
2022/12/10 06:30:02;;;;;;;61.73;24.43;;;1.10;92.10;;;;;;5022813;28;20221;-76
2022/12/10 06:32:28;;;;;;;58.10;25.00;;;1.10;92.00;;;;;;5026563;28;20196;-74
2022/12/10 06:34:54;;;;;;;57.27;23.70;;;1.10;92.00;;;;;;5027137;28;20451;-75
2022/12/10 06:37:19;;;;;;;53.90;23.50;;;1.10;92.00;;;;;;5028083;28;20193;-73
2022/12/10 06:39:45;;;;;;;56.40;25.90;;;1.10;92.00;;;;;;5031188;28;20205;-73
2022/12/10 06:42:10;;;;;;;57.57;24.73;;;1.10;91.70;;;;;;5023263;28;20269;-73
2022/12/10 06:44:37;;;;;;;54.70;23.83;;;1.00;91.80;;;;;;5031830;28;20244;-74
2022/12/10 06:47:03;;;;;;;59.97;26.20;;;1.00;92.10;;;;;;5021948;28;20221;-73
2022/12/10 06:49:28;;;;;;;64.10;24.53;;;1.00;92.20;;;;;;5030681;28;20788;-73
2022/12/10 06:51:54;;;;;;;61.57;26.27;;;0.90;92.30;;;;;;5033270;28;20703;-73
2022/12/10 06:54:20;;;;;;;49.53;22.90;;;0.90;92.50;;;;;;5025969;28;20209;-73
2022/12/10 06:56:45;;;;;;;53.03;24.47;;;0.90;92.70;;;;;;5027313;28;20994;-73
2022/12/10 06:59:11;;;;;;;57.50;24.67;;;0.90;92.60;;;;;;5021788;28;20241;-72
2022/12/10 07:01:38;;;;;;;64.37;25.87;;;0.90;92.70;;;;;;5022353;28;20231;-75
2022/12/10 07:04:04;;;;;;;57.40;24.83;;;0.90;92.70;;;;;;5022548;28;20193;-73
2022/12/10 07:06:31;;;;;;;54.47;24.97;;;1.00;92.80;;;;;;5029092;28;20193;-75
2022/12/10 07:08:57;;;;;;;61.85;25.05;;;1.00;92.60;;;;;;5027878;28;20224;-73
2022/12/10 07:11:24;;;;;;;51.58;23.67;;;1.00;92.40;;;;;;5019724;28;20177;-73
2022/12/10 07:13:50;;;;;;;59.25;25.63;;;1.00;92.30;;;;;;5028040;28;20205;-73
2022/12/10 07:16:18;;;;;;;60.20;25.27;;;1.00;92.20;;;;;;5023393;28;20648;-73
2022/12/10 07:18:45;;;;;;;58.25;22.98;;;1.00;92.20;;;;;;5022670;28;20193;-72
2022/12/10 07:21:22;;;;;;;53.45;24.00;;;1.10;92.30;;;;;;5024645;28;20704;-72
2022/12/10 07:23:48;;;;;;;48.08;22.83;;;1.30;92.20;;;;;;5025267;28;20177;-73
2022/12/10 07:26:14;;;;;;;58.70;24.85;;;1.30;92.10;;;;;;5024750;28;20190;-73
2022/12/10 07:28:39;;;;;;;47.43;24.03;;;1.40;92.10;;;;;;5025931;28;20564;-72
2022/12/10 07:31:07;;;;;;;53.63;23.33;;;1.30;91.70;;;;;;5025340;28;20189;-72
2022/12/10 07:33:33;;;;;;;45.30;22.63;;;1.50;91.80;;;;;;5028483;28;20268;-73
2022/12/10 07:35:58;;;;;;;50.17;22.10;;;1.60;91.60;;;;;;5028570;28;20189;-73
2022/12/10 07:38:24;;;;;;;55.43;24.03;;;1.60;91.20;;;;;;5027845;28;20185;-73
2022/12/10 07:40:50;;;;;;;52.87;24.53;;;1.60;91.00;;;;;;5026798;28;20232;-73
2022/12/10 07:43:16;;;;;;;52.60;24.65;;;1.60;90.90;;;;;;5026339;28;20431;-73
2022/12/10 07:45:42;;;;;;;53.87;24.27;;;1.40;90.50;;;;;;5020802;28;20185;-73
2022/12/10 07:48:08;;;;;;;48.57;21.70;;;1.40;90.80;;;;;;5024487;28;20230;-73
2022/12/10 07:50:33;;;;;;;48.47;25.00;;;1.50;90.90;;;;;;5023567;28;20291;-74
2022/12/10 07:52:59;;;;;;;61.33;25.57;;;1.70;91.00;;;;;;5015150;28;20689;-73
2022/12/10 07:55:25;;;;;;;58.60;25.23;;;1.50;90.60;;;;;;5029981;28;20430;-73
2022/12/10 07:57:51;;;;;;;51.43;24.20;;;1.50;90.70;;;;;;5019163;28;20185;-73
2022/12/10 08:00:17;;;;;;;49.77;22.87;;;1.60;90.90;;;;;;5025377;28;20293;-73
2022/12/10 08:02:42;;;;;;;49.73;22.20;;;1.40;90.50;;;;;;5029437;28;20189;-73
2022/12/10 08:05:08;;;;;;;45.77;21.60;;;1.40;90.60;;;;;;5027179;28;20434;-73
2022/12/10 08:07:34;;;;;;;49.17;22.80;;;1.70;90.70;;;;;;5029581;28;20189;-73
2022/12/10 08:10:00;;;;;;;60.13;25.35;;;1.70;90.30;;;;;;5024337;28;20504;-74
2022/12/10 08:12:25;;;;;;;51.80;23.97;;;1.60;90.20;;;;;;5023727;28;20216;-73
2022/12/10 08:14:52;;;;;;;53.80;24.00;;;1.30;90.10;;;;;;5023904;28;20614;-73
2022/12/10 08:17:17;;;;;;;54.42;24.77;;;1.30;90.70;;;;;;5020721;28;20182;-73
2022/12/10 08:19:43;;;;;;;52.60;23.70;;;1.30;90.90;;;;;;5026865;28;20209;-74
2022/12/10 08:22:09;;;;;;;56.83;24.87;;;1.40;90.90;;;;;;5029068;28;20186;-72
2022/12/10 08:24:34;;;;;;;53.13;24.07;;;1.50;90.80;;;;;;5031050;28;20271;-73
2022/12/10 08:27:00;;;;;;;53.07;24.00;;;1.40;90.70;;;;;;5014970;28;20185;-72
2022/12/10 08:29:25;;;;;;;68.77;27.20;;;1.20;90.90;;;;;;5026044;28;20609;-73
2022/12/10 08:31:51;;;;;;;52.33;24.27;;;1.20;91.10;;;;;;5017490;28;20189;-72
2022/12/10 08:34:17;;;;;;;53.60;24.90;;;1.10;91.30;;;;;;5026031;28;20231;-73
2022/12/10 08:36:44;;;;;;;55.80;24.20;;;1.00;91.40;;;;;;5030497;28;20668;-73
2022/12/10 08:39:10;;;;;;;61.05;25.20;;;1.00;91.50;;;;;;5025880;28;20315;-73
2022/12/10 08:41:36;;;;;;;68.63;27.20;;;1.00;91.60;;;;;;5032026;28;20181;-73
2022/12/10 08:44:02;;;;;;;51.22;24.45;;;1.00;91.70;;;;;;5020323;28;20213;-74
2022/12/10 08:46:28;;;;;;;57.60;24.07;;;1.10;91.80;;;;;;5029317;28;20181;-73
2022/12/10 08:48:54;;;;;;;60.03;25.92;;;1.20;91.90;;;;;;5026320;28;20279;-73
2022/12/10 08:51:21;;;;;;;53.80;22.97;;;1.40;91.90;;;;;;5023828;28;20220;-74
2022/12/10 08:53:46;;;;;;;52.17;24.30;;;1.40;91.50;;;;;;5020909;28;20440;-74
2022/12/10 08:56:12;;;;;;;56.57;25.60;;;1.30;91.10;;;;;;5025544;28;20188;-73
2022/12/10 08:58:38;;;;;;;51.37;24.80;;;1.30;90.90;;;;;;5023275;28;20177;-72
2022/12/10 09:01:09;;;;;;;55.65;24.10;;;1.20;90.70;;;;;;5025477;28;20950;-73
2022/12/10 09:03:36;;;;;;;55.30;24.63;;;1.20;90.90;;;;;;5018409;28;20189;-73
2022/12/10 09:06:07;;;;;;;50.50;22.23;;;1.20;91.00;;;;;;5015075;28;20177;-72
2022/12/10 09:08:34;;;;;;;52.85;24.48;;;1.30;90.90;;;;;;5022242;28;20293;-73
2022/12/10 09:11:08;;;;;;;54.58;23.48;;;1.30;91.00;;;;;;5020530;28;20268;-72
2022/12/10 09:13:34;;;;;;;56.92;24.85;;;1.50;90.80;;;;;;5014347;28;20312;-73
2022/12/10 09:15:59;;;;;;;51.03;22.80;;;1.60;90.70;;;;;;5021609;28;20256;-72
2022/12/10 09:18:25;;;;;;;49.87;23.80;;;1.60;90.40;;;;;;5018346;28;20474;-73
2022/12/10 09:20:51;;;;;;;52.73;23.67;;;1.70;90.30;;;;;;5022691;28;20229;-72
2022/12/10 09:23:16;;;;;;;50.43;23.83;;;1.80;90.10;;;;;;5020397;28;20192;-72
2022/12/10 09:25:42;;;;;;;46.80;22.33;;;1.70;89.30;;;;;;5023300;28;20192;-73
2022/12/10 09:28:07;;;;;;;53.60;24.73;;;1.60;89.20;;;;;;5026053;28;20292;-72
2022/12/10 09:30:33;;;;;;;49.13;22.87;;;1.50;89.50;;;;;;5021243;28;20937;-72
2022/12/10 09:32:58;;;;;;;55.10;23.03;;;1.50;89.90;;;;;;5022008;28;20621;-72
2022/12/10 09:35:24;;;;;;;49.83;22.03;;;1.80;90.10;;;;;;5018032;28;20209;-74
2022/12/10 09:37:50;;;;;;;52.57;23.77;;;1.80;89.30;;;;;;5020273;28;20190;-73
2022/12/10 09:40:40;;;;;;;58.43;24.90;;;1.60;88.70;;;;;;5023693;28;20205;-72
2022/12/10 09:43:13;;;;;;;61.47;24.50;;;1.60;89.50;;;;;;5025609;28;20940;-71
2022/12/10 09:46:11;;;;;;;50.72;23.15;;;1.70;89.70;;;;;;5018605;28;20549;-71
2022/12/10 09:48:40;;;;;;;53.47;22.77;;;1.80;89.30;;;;;;5020046;28;20260;-73
2022/12/10 09:51:12;;;;;;;54.70;24.48;;;1.70;89.00;;;;;;5026405;28;20197;-71
2022/12/10 09:53:38;;;;;;;53.00;23.25;;;1.80;88.90;;;;;;5015404;28;20704;-71
2022/12/10 09:56:05;;;;;;;49.95;23.95;;;1.70;88.60;;;;;;5023660;28;20197;-71
2022/12/10 09:58:30;;;;;;;53.25;22.30;;;1.80;88.90;;;;;;5018589;28;20189;-72
2022/12/10 10:01:10;;;;;;;46.03;23.20;;;1.90;88.90;;;;;;5021436;28;20550;-72
2022/12/10 10:03:39;;;;;;;45.30;21.88;;;1.80;87.70;;;;;;5017362;28;20195;-73
2022/12/10 10:06:05;;;;;;;47.40;23.30;;;1.90;88.00;;;;;;5022827;28;20712;-72
2022/12/10 10:08:36;;;;;;;55.70;23.87;;;2.20;87.60;;;;;;5022927;28;20280;-73
2022/12/10 10:11:03;;;;;;;50.08;23.08;;;2.00;87.00;;;;;;5028865;28;20449;-72
2022/12/10 10:13:51;;;;;;;52.17;21.77;;;2.00;87.30;;;;;;5027846;28;20188;-73
2022/12/10 10:16:20;;;;;;;47.13;21.92;;;2.20;87.40;;;;;;5039389;28;20220;-73
2022/12/10 10:19:07;;;;;;;51.83;24.67;;;2.00;86.60;;;;;;5029511;28;20189;-73
2022/12/10 10:21:36;;;;;;;50.10;23.23;;;1.90;87.10;;;;;;5032701;28;20862;-72
2022/12/10 10:24:02;;;;;;;55.92;23.45;;;1.90;87.70;;;;;;5029312;28;20435;-73
2022/12/10 10:26:29;;;;;;;51.08;22.20;;;2.00;87.40;;;;;;5032685;28;20215;-73
2022/12/10 10:29:01;;;;;;;52.90;22.85;;;2.00;87.10;;;;;;5036775;28;20317;-72
2022/12/10 10:31:30;;;;;;;43.10;20.92;;;2.10;87.00;;;;;;5039286;28;20188;-72
2022/12/10 10:33:58;;;;;;;59.00;22.48;;;1.80;86.00;;;;;;5033871;28;20208;-71
2022/12/10 10:36:27;;;;;;;47.92;20.75;;;1.70;86.30;;;;;;5035103;28;20216;-72
2022/12/10 10:38:53;;;;;;;48.70;22.45;;;1.60;86.60;;;;;;5028645;28;20204;-72
2022/12/10 10:41:19;;;;;;;53.60;23.87;;;1.70;86.90;;;;;;5032569;28;20169;-74
2022/12/10 10:43:45;;;;;;;50.67;22.23;;;1.80;87.00;;;;;;5026853;28;20489;-73
2022/12/10 10:46:21;;;;;;;53.17;22.83;;;1.80;87.30;;;;;;5029596;28;20182;-73
2022/12/10 10:48:48;;;;;;;50.23;22.90;;;1.90;87.40;;;;;;5025506;28;20177;-72
2022/12/10 10:51:15;;;;;;;46.80;22.55;;;1.80;87.40;;;;;;5023620;28;20450;-72
2022/12/10 10:53:45;;;;;;;52.55;21.20;;;1.90;87.70;;;;;;5023664;28;20538;-73
2022/12/10 10:56:20;;;;;;;50.47;23.80;;;1.90;87.00;;;;;;5024069;28;20186;-73
2022/12/10 10:58:53;;;;;;;44.75;22.35;;;2.00;87.10;;;;;;5025808;28;20182;-72
2022/12/10 11:01:19;;;;;;;49.55;23.63;;;2.00;86.80;;;;;;5023356;28;20192;-71
2022/12/10 11:03:53;;;;;;;49.22;22.10;;;2.00;86.50;;;;;;5028944;28;20182;-73
2022/12/10 11:06:19;;;;;;;57.47;22.95;;;2.00;86.50;;;;;;5033302;28;20177;-73
2022/12/10 11:08:46;;;;;;;57.33;22.83;;;2.00;86.30;;;;;;5031949;28;20201;-73
2022/12/10 11:11:19;;;;;;;48.40;21.95;;;2.00;85.90;;;;;;5031406;28;20201;-72
2022/12/10 11:13:45;;;;;;;51.15;21.73;;;2.00;86.50;;;;;;5037694;28;20174;-72
2022/12/10 11:16:16;;;;;;;46.57;22.63;;;2.00;86.20;;;;;;5034487;28;20553;-73
2022/12/10 11:18:50;;;;;;;54.60;21.83;;;2.10;86.20;;;;;;5025331;28;20216;-73
2022/12/10 11:21:21;;;;;;;45.25;20.52;;;2.10;85.70;;;;;;5023024;28;20593;-74
2022/12/10 11:23:52;;;;;;;45.60;20.92;;;2.00;86.30;;;;;;5021673;28;20181;-73
2022/12/10 11:26:20;;;;;;;45.67;21.30;;;2.00;86.50;;;;;;5021835;28;20679;-72
2022/12/10 11:29:07;;;;;;;49.47;21.80;;;2.00;86.30;;;;;;5018407;28;20421;-72
2022/12/10 11:31:42;;;;;;;47.17;21.07;;;2.00;86.50;;;;;;5026909;28;20424;-73
2022/12/10 11:34:36;;;;;;;41.10;20.00;;;1.80;85.70;;;;;;5023700;28;20442;-74
2022/12/10 11:37:25;;;;;;;47.97;22.40;;;2.00;86.60;;;;;;5025624;28;20200;-72
2022/12/10 11:40:14;;;;;;;48.93;21.77;;;2.20;86.50;;;;;;5020924;28;20456;-73
2022/12/10 11:42:54;;;;;;;46.57;20.50;;;2.10;85.50;;;;;;5017337;28;20435;-73
2022/12/10 11:45:33;;;;;;;40.28;18.98;;;2.10;85.60;;;;;;5028470;28;20412;-73
2022/12/10 11:48:26;;;;;;;50.53;20.58;;;2.00;85.20;;;;;;5016026;28;20530;-72
2022/12/10 11:50:58;;;;;;;39.90;18.90;;;2.10;85.50;;;;;;5023346;28;20217;-74
2022/12/10 11:53:32;;;;;;;39.55;20.23;;;2.20;85.00;;;;;;5023588;28;20209;-73
2022/12/10 11:56:16;;;;;;;40.15;18.50;;;2.10;84.10;;;;;;5025461;28;20220;-72
2022/12/10 11:59:02;;;;;;;38.67;20.13;;;2.20;84.90;;;;;;5018362;28;20348;-72
2022/12/10 12:01:41;;;;;;;50.83;20.58;;;2.30;84.40;;;;;;5005521;28;20197;-72
2022/12/10 12:04:22;;;;;;;43.13;19.50;;;2.20;84.10;;;;;;5023204;28;20189;-74
2022/12/10 12:07:11;;;;;;;50.30;20.30;;;2.30;84.30;;;;;;5020607;28;21028;-72
2022/12/10 12:09:36;;;;;;;42.38;18.17;;;2.10;83.10;;;;;;4992693;28;20478;-73
2022/12/10 12:12:05;;;;;;;40.00;18.37;;;2.10;83.00;;;;;;5026321;28;20185;-74
2022/12/10 12:14:44;;;;;;;39.78;19.05;;;1.90;83.10;;;;;;5024841;28;20898;-73
2022/12/10 12:17:14;;;;;;;36.35;19.02;;;1.90;84.00;;;;;;5020495;28;20249;-73
2022/12/10 12:19:46;;;;;;;40.73;18.73;;;2.20;84.10;;;;;;5019954;28;20288;-74
2022/12/10 12:22:28;;;;;;;38.47;18.13;;;2.20;83.10;;;;;;5025815;28;20419;-73
2022/12/10 12:25:05;;;;;;;39.13;18.48;;;2.40;83.60;;;;;;5023259;28;20516;-72
2022/12/10 12:27:40;;;;;;;33.10;17.40;;;2.30;82.10;;;;;;5026262;28;20234;-73
2022/12/10 12:30:18;;;;;;;37.70;18.10;;;2.60;82.50;;;;;;5024866;28;20514;-75
2022/12/10 12:32:53;;;;;;;47.47;18.73;;;2.50;80.20;;;;;;5022625;28;20466;-72
2022/12/10 12:35:43;;;;;;;34.30;16.45;;;2.60;79.90;;;;;;5025448;28;20656;-74
2022/12/10 12:38:31;;;;;;;35.40;17.48;;;2.50;79.60;;;;;;5025029;28;20196;-73
2022/12/10 12:41:10;;;;;;;37.17;17.30;;;2.50;79.90;;;;;;5028454;28;20249;-73
2022/12/10 12:43:35;;;;;;;40.90;18.23;;;2.50;80.00;;;;;;5011650;28;20492;-72
2022/12/10 12:46:10;;;;;;;38.60;17.63;;;2.50;80.60;;;;;;5018706;28;20515;-73
2022/12/10 12:48:48;;;;;;;35.37;17.03;;;2.30;80.50;;;;;;5018491;28;20674;-74
2022/12/10 12:51:23;;;;;;;35.38;16.85;;;2.30;80.50;;;;;;5023677;28;20435;-72
2022/12/10 12:53:49;;;;;;;42.28;17.52;;;2.30;80.90;;;;;;5019497;28;20188;-72
2022/12/10 12:56:46;;;;;;;40.40;16.63;;;2.30;80.90;;;;;;5035247;28;20212;-73